Aaron Joseph — WCV9877 — position and weather

sailwx.info

Track history (hours):
 
Tides and Currents Weather Stations Pressure Air Temp Water Temp Dewpoint Dewpoint Depression Visibility Wind Speed Wind Dir Waves Ship Positions

Aaron Joseph

Owner: AARON JOSEPH INC, GOLDEN MEADOW, LA. More information available from US FCC via Universal Licensing System and Coast Guard Vessel Documentation Center.

Last reported at 2016-May-03 19:25 UTC. Time now 2016-May-03 20:05 UTC.
Position N 30°04' W 093°16'.

; draft 2.5 m.

Type: Tug. MMSI: 367028680.

Date/timePositionNaut miles runAvg speedWind from/ knotsBaromVisibWave heightAir tempDewpointWater temp
2016-May-03 19:25N 30°04' W 093°16'0 0.0
2016-May-03 18:28N 30°04' W 093°16'0 0.0
2016-May-03 17:31N 30°04' W 093°16'0 0.0
2016-May-03 16:31N 30°04' W 093°16'0 0.1
2016-May-03 15:34N 30°04' W 093°16'5 4.6
2016-May-03 14:33N 29°60' W 093°13'5 4.6
2016-May-03 13:34N 29°56' W 093°10'5 4.8
2016-May-03 12:30N 29°56' W 093°04'117 4.0
2016-May-02 07:18N 29°32' W 090°52'5 7.1
2016-May-02 06:33N 29°33' W 090°45'5 5.4
2016-May-02 05:33N 29°36' W 090°41'1 0.9
2016-May-02 04:33N 29°36' W 090°40'0 0.5
2016-May-02 03:32N 29°36' W 090°40'0 0.0
2016-May-02 02:32N 29°36' W 090°40'0 0.0
2016-May-02 01:32N 29°36' W 090°40'0 0.0
2016-May-02 00:26N 29°36' W 090°40'0 0.0
2016-May-01 23:32N 29°36' W 090°40'0 0.0
2016-May-01 22:32N 29°36' W 090°40'0 0.0
2016-May-01 21:26N 29°36' W 090°40'0 0.0
2016-May-01 20:20N 29°36' W 090°40'0 0.0
2016-May-01 19:32N 29°36' W 090°40'0 0.0
2016-May-01 18:32N 29°36' W 090°40'0 0.0
2016-May-01 17:32N 29°36' W 090°40'0 0.0
2016-May-01 16:20N 29°36' W 090°40'0 0.0
2016-May-01 15:32N 29°36' W 090°40'0 0.0
2016-May-01 14:32N 29°36' W 090°40'0 0.0
2016-May-01 13:32N 29°36' W 090°40'0 0.0
2016-May-01 12:32N 29°36' W 090°40'0 0.0
2016-May-01 11:26N 29°36' W 090°40'0 0.0
2016-May-01 10:32N 29°36' W 090°40'0 0.0
2016-May-01 09:32N 29°36' W 090°40'0 0.0
2016-May-01 08:32N 29°36' W 090°40'0 0.0
2016-May-01 07:32N 29°36' W 090°40'0 0.0
2016-May-01 06:32N 29°36' W 090°40'0 0.0
2016-May-01 05:26N 29°36' W 090°40'0 0.0
2016-May-01 03:32N 29°36' W 090°40'0 0.0
2016-May-01 02:32N 29°36' W 090°40'0 0.0
2016-May-01 01:32N 29°36' W 090°40'0 0.0
2016-May-01 00:32N 29°36' W 090°40'0 0.0
2016-Apr-30 23:32N 29°36' W 090°40'0 0.0
2016-Apr-30 22:26N 29°36' W 090°40'0 0.0
2016-Apr-30 21:32N 29°36' W 090°40'0 0.0
2016-Apr-30 20:32N 29°36' W 090°40'0 0.0
2016-Apr-30 19:32N 29°36' W 090°40'0 0.0
2016-Apr-30 18:32N 29°36' W 090°40'0 0.0
2016-Apr-30 17:32N 29°36' W 090°40'0 0.0
2016-Apr-30 16:32N 29°36' W 090°40'0 0.0
2016-Apr-30 15:26N 29°36' W 090°40'0 0.0
2016-Apr-30 14:32N 29°36' W 090°40'0 0.0
2016-Apr-30 13:20N 29°36' W 090°40'0 0.0
2016-Apr-30 12:20N 29°36' W 090°40'0 0.0
2016-Apr-30 11:26N 29°36' W 090°40'0 0.0
2016-Apr-30 10:32N 29°36' W 090°40'0 0.0
2016-Apr-30 09:26N 29°36' W 090°40'0 0.0
2016-Apr-30 08:32N 29°36' W 090°40'0 0.0
2016-Apr-30 07:32N 29°36' W 090°40'0 0.0
2016-Apr-30 06:32N 29°36' W 090°40'0 0.0
2016-Apr-30 05:32N 29°36' W 090°40'0 0.0
2016-Apr-30 04:32N 29°36' W 090°40'0 0.0
2016-Apr-30 02:32N 29°36' W 090°40'0 0.0
2016-Apr-30 01:20N 29°36' W 090°40'0 0.0
2016-Apr-30 00:32N 29°36' W 090°40'0 0.0
2016-Apr-29 23:32N 29°36' W 090°40'0 0.0
2016-Apr-29 22:32N 29°36' W 090°40'0 0.0
2016-Apr-29 21:26N 29°36' W 090°40'0 0.0
2016-Apr-29 20:33N 29°36' W 090°40'4 3.4
2016-Apr-29 19:25N 29°35' W 090°36'0 0.0
2016-Apr-29 18:31N 29°35' W 090°36'0 0.0
2016-Apr-29 17:07N 29°35' W 090°36'0 0.0
2016-Apr-29 16:25N 29°35' W 090°36'0 0.0
2016-Apr-29 15:25N 29°35' W 090°36'0 0.0
2016-Apr-29 14:13N 29°35' W 090°36'0 0.0
2016-Apr-29 13:31N 29°35' W 090°36'0 0.0
2016-Apr-29 12:19N 29°35' W 090°36'0 0.0
2016-Apr-29 11:25N 29°35' W 090°36'0 0.0
2016-Apr-29 10:31N 29°35' W 090°36'0 0.0
2016-Apr-29 09:31N 29°35' W 090°36'0 0.0
2016-Apr-29 08:31N 29°35' W 090°36'0 0.0
2016-Apr-29 07:31N 29°35' W 090°36'0 0.0
2016-Apr-29 06:31N 29°35' W 090°36'0 0.0
2016-Apr-29 05:31N 29°35' W 090°36'0 0.0
2016-Apr-29 04:31N 29°35' W 090°36'0 0.0
2016-Apr-29 03:31N 29°35' W 090°36'0 0.0
2016-Apr-29 02:31N 29°35' W 090°36'0 0.0
2016-Apr-29 01:31N 29°35' W 090°36'0 0.0
2016-Apr-29 00:31N 29°35' W 090°36'0 0.0
2016-Apr-28 23:31N 29°35' W 090°36'0 0.0
2016-Apr-28 22:31N 29°35' W 090°36'0 0.0
2016-Apr-28 21:31N 29°35' W 090°36'0 0.0
2016-Apr-28 20:31N 29°35' W 090°36'0 0.0
2016-Apr-28 19:31N 29°35' W 090°36'0 0.0
2016-Apr-28 18:31N 29°35' W 090°36'0 0.0
2016-Apr-28 17:31N 29°35' W 090°36'0 0.0
2016-Apr-28 16:31N 29°35' W 090°36'0 0.0
2016-Apr-28 15:31N 29°35' W 090°36'0 0.0
2016-Apr-28 14:31N 29°35' W 090°36'0 0.0
2016-Apr-28 13:31N 29°35' W 090°36'0 0.0
2016-Apr-28 12:31N 29°35' W 090°36'0 0.0
2016-Apr-28 11:31N 29°35' W 090°36'0 0.0
2016-Apr-28 10:31N 29°35' W 090°36'0 0.0
2016-Apr-28 09:31N 29°35' W 090°36'0 0.0
2016-Apr-28 08:31N 29°35' W 090°36'0 0.0
2016-Apr-28 07:31N 29°35' W 090°36'0 0.0
2016-Apr-28 06:31N 29°35' W 090°36'0 0.0
2016-Apr-28 05:31N 29°35' W 090°36'0 0.0
2016-Apr-28 04:31N 29°35' W 090°36'0 0.0
2016-Apr-28 03:31N 29°35' W 090°36'0 0.0
2016-Apr-28 02:31N 29°35' W 090°36'0 0.0
2016-Apr-28 01:31N 29°35' W 090°36'0 0.0
2016-Apr-28 00:25N 29°35' W 090°36'0 0.0
2016-Apr-27 23:31N 29°35' W 090°36'0 0.0
2016-Apr-27 22:31N 29°35' W 090°36'0 0.0
2016-Apr-27 21:31N 29°35' W 090°36'0 0.0
2016-Apr-27 20:31N 29°35' W 090°36'0 0.0
2016-Apr-27 19:31N 29°35' W 090°36'0 0.0
2016-Apr-27 18:31N 29°35' W 090°36'0 0.0
2016-Apr-27 17:31N 29°35' W 090°36'0 0.0
2016-Apr-27 16:31N 29°35' W 090°36'0 0.0
2016-Apr-27 15:31N 29°35' W 090°36'0 0.0
2016-Apr-27 14:19N 29°35' W 090°36'0 0.0
2016-Apr-27 13:19N 29°35' W 090°36'0 0.0
2016-Apr-27 12:31N 29°35' W 090°36'0 0.0
2016-Apr-27 11:31N 29°35' W 090°36'0 0.0
2016-Apr-27 10:25N 29°35' W 090°36'0 0.0
2016-Apr-27 09:31N 29°35' W 090°36'0 0.0
2016-Apr-27 08:31N 29°35' W 090°36'0 0.0
2016-Apr-27 07:31N 29°35' W 090°36'0 0.0
2016-Apr-27 06:31N 29°35' W 090°36'0 0.0
2016-Apr-27 05:31N 29°35' W 090°36'0 0.0
2016-Apr-27 04:31N 29°35' W 090°36'0 0.0
2016-Apr-27 03:25N 29°35' W 090°36'0 0.0
2016-Apr-27 02:31N 29°35' W 090°36'0 0.0
2016-Apr-27 01:31N 29°35' W 090°36'0 0.0
2016-Apr-27 00:25N 29°35' W 090°36'0 0.0
2016-Apr-26 23:31N 29°35' W 090°36'0 0.0
2016-Apr-26 22:07N 29°35' W 090°36'0 0.0
2016-Apr-26 21:25N 29°35' W 090°36'0 0.0
2016-Apr-26 20:31N 29°35' W 090°36'0 0.0
2016-Apr-26 19:31N 29°35' W 090°36'0 0.0
2016-Apr-26 16:13N 29°35' W 090°36'0 0.0
2016-Apr-26 15:31N 29°35' W 090°36'4 3.9
2016-Apr-26 14:32N 29°36' W 090°40'0 0.0
2016-Apr-26 13:31N 29°36' W 090°40'0 0.0
2016-Apr-26 12:31N 29°36' W 090°40'0 0.0
2016-Apr-26 11:19N 29°36' W 090°40'0 0.0
2016-Apr-26 08:25N 29°36' W 090°40'0 0.0
2016-Apr-26 07:31N 29°36' W 090°40'0 0.0
2016-Apr-26 05:23N 29°36' W 090°40'4 5.3
2016-Apr-26 04:33N 29°35' W 090°35'11 0.3
2016-Apr-24 15:23N 29°26' W 090°43'4 4.6
2016-Apr-24 14:33N 29°29' W 090°43'5 4.7
2016-Apr-24 13:33N 29°34' W 090°43'4 3.7
2016-Apr-24 12:34N 29°32' W 090°47'5 4.7
2016-Apr-24 11:32N 29°32' W 090°52'5 4.5
2016-Apr-24 10:32N 29°34' W 090°57'  
Track history (hours):
 
Tides and Currents Weather Stations Pressure Air Temp Water Temp Dewpoint Dewpoint Depression Visibility Wind Speed Wind Dir Waves Ship Positions

Aaron Joseph

Owner: AARON JOSEPH INC, GOLDEN MEADOW, LA. More information available from US FCC via Universal Licensing System and Coast Guard Vessel Documentation Center.

Last reported at 2016-May-03 19:25 UTC. Time now 2016-May-03 20:05 UTC.
Position N 30°04' W 093°16'.

; draft 2.5 m.

Type: Tug. MMSI: 367028680.

Date/timePositionNaut miles runAvg speedWind from/ knotsBaromVisibWave heightAir tempDewpointWater temp
2016-May-03 19:25N 30°04' W 093°16'0 0.0
2016-May-03 18:28N 30°04' W 093°16'0 0.0
2016-May-03 17:31N 30°04' W 093°16'0 0.0
2016-May-03 16:31N 30°04' W 093°16'0 0.1
2016-May-03 15:34N 30°04' W 093°16'5 4.6
2016-May-03 14:33N 29°60' W 093°13'5 4.6
2016-May-03 13:34N 29°56' W 093°10'5 4.8
2016-May-03 12:30N 29°56' W 093°04'117 4.0
2016-May-02 07:18N 29°32' W 090°52'5 7.1
2016-May-02 06:33N 29°33' W 090°45'5 5.4
2016-May-02 05:33N 29°36' W 090°41'1 0.9
2016-May-02 04:33N 29°36' W 090°40'0 0.5
2016-May-02 03:32N 29°36' W 090°40'0 0.0
2016-May-02 02:32N 29°36' W 090°40'0 0.0
2016-May-02 01:32N 29°36' W 090°40'0 0.0
2016-May-02 00:26N 29°36' W 090°40'0 0.0
2016-May-01 23:32N 29°36' W 090°40'0 0.0
2016-May-01 22:32N 29°36' W 090°40'0 0.0
2016-May-01 21:26N 29°36' W 090°40'0 0.0
2016-May-01 20:20N 29°36' W 090°40'0 0.0
2016-May-01 19:32N 29°36' W 090°40'0 0.0
2016-May-01 18:32N 29°36' W 090°40'0 0.0
2016-May-01 17:32N 29°36' W 090°40'0 0.0
2016-May-01 16:20N 29°36' W 090°40'0 0.0
2016-May-01 15:32N 29°36' W 090°40'0 0.0
2016-May-01 14:32N 29°36' W 090°40'0 0.0
2016-May-01 13:32N 29°36' W 090°40'0 0.0
2016-May-01 12:32N 29°36' W 090°40'0 0.0
2016-May-01 11:26N 29°36' W 090°40'0 0.0
2016-May-01 10:32N 29°36' W 090°40'0 0.0
2016-May-01 09:32N 29°36' W 090°40'0 0.0
2016-May-01 08:32N 29°36' W 090°40'0 0.0
2016-May-01 07:32N 29°36' W 090°40'0 0.0
2016-May-01 06:32N 29°36' W 090°40'0 0.0
2016-May-01 05:26N 29°36' W 090°40'0 0.0
2016-May-01 03:32N 29°36' W 090°40'0 0.0
2016-May-01 02:32N 29°36' W 090°40'0 0.0
2016-May-01 01:32N 29°36' W 090°40'0 0.0
2016-May-01 00:32N 29°36' W 090°40'0 0.0
2016-Apr-30 23:32N 29°36' W 090°40'0 0.0
2016-Apr-30 22:26N 29°36' W 090°40'0 0.0
2016-Apr-30 21:32N 29°36' W 090°40'0 0.0
2016-Apr-30 20:32N 29°36' W 090°40'0 0.0
2016-Apr-30 19:32N 29°36' W 090°40'0 0.0
2016-Apr-30 18:32N 29°36' W 090°40'0 0.0
2016-Apr-30 17:32N 29°36' W 090°40'0 0.0
2016-Apr-30 16:32N 29°36' W 090°40'0 0.0
2016-Apr-30 15:26N 29°36' W 090°40'0 0.0
2016-Apr-30 14:32N 29°36' W 090°40'0 0.0
2016-Apr-30 13:20N 29°36' W 090°40'0 0.0
2016-Apr-30 12:20N 29°36' W 090°40'0 0.0
2016-Apr-30 11:26N 29°36' W 090°40'0 0.0
2016-Apr-30 10:32N 29°36' W 090°40'0 0.0
2016-Apr-30 09:26N 29°36' W 090°40'0 0.0
2016-Apr-30 08:32N 29°36' W 090°40'0 0.0
2016-Apr-30 07:32N 29°36' W 090°40'0 0.0
2016-Apr-30 06:32N 29°36' W 090°40'0 0.0
2016-Apr-30 05:32N 29°36' W 090°40'0 0.0
2016-Apr-30 04:32N 29°36' W 090°40'0 0.0
2016-Apr-30 02:32N 29°36' W 090°40'0 0.0
2016-Apr-30 01:20N 29°36' W 090°40'0 0.0
2016-Apr-30 00:32N 29°36' W 090°40'0 0.0
2016-Apr-29 23:32N 29°36' W 090°40'0 0.0
2016-Apr-29 22:32N 29°36' W 090°40'0 0.0
2016-Apr-29 21:26N 29°36' W 090°40'0 0.0
2016-Apr-29 20:33N 29°36' W 090°40'4 3.4
2016-Apr-29 19:25N 29°35' W 090°36'0 0.0
2016-Apr-29 18:31N 29°35' W 090°36'0 0.0
2016-Apr-29 17:07N 29°35' W 090°36'0 0.0
2016-Apr-29 16:25N 29°35' W 090°36'0 0.0
2016-Apr-29 15:25N 29°35' W 090°36'0 0.0
2016-Apr-29 14:13N 29°35' W 090°36'0 0.0
2016-Apr-29 13:31N 29°35' W 090°36'0 0.0
2016-Apr-29 12:19N 29°35' W 090°36'0 0.0
2016-Apr-29 11:25N 29°35' W 090°36'0 0.0
2016-Apr-29 10:31N 29°35' W 090°36'0 0.0
2016-Apr-29 09:31N 29°35' W 090°36'0 0.0
2016-Apr-29 08:31N 29°35' W 090°36'0 0.0
2016-Apr-29 07:31N 29°35' W 090°36'0 0.0
2016-Apr-29 06:31N 29°35' W 090°36'0 0.0
2016-Apr-29 05:31N 29°35' W 090°36'0 0.0
2016-Apr-29 04:31N 29°35' W 090°36'0 0.0
2016-Apr-29 03:31N 29°35' W 090°36'0 0.0
2016-Apr-29 02:31N 29°35' W 090°36'0 0.0
2016-Apr-29 01:31N 29°35' W 090°36'0 0.0
2016-Apr-29 00:31N 29°35' W 090°36'0 0.0
2016-Apr-28 23:31N 29°35' W 090°36'0 0.0
2016-Apr-28 22:31N 29°35' W 090°36'0 0.0
2016-Apr-28 21:31N 29°35' W 090°36'0 0.0
2016-Apr-28 20:31N 29°35' W 090°36'0 0.0
2016-Apr-28 19:31N 29°35' W 090°36'0 0.0
2016-Apr-28 18:31N 29°35' W 090°36'0 0.0
2016-Apr-28 17:31N 29°35' W 090°36'0 0.0
2016-Apr-28 16:31N 29°35' W 090°36'0 0.0
2016-Apr-28 15:31N 29°35' W 090°36'0 0.0
2016-Apr-28 14:31N 29°35' W 090°36'0 0.0
2016-Apr-28 13:31N 29°35' W 090°36'0 0.0
2016-Apr-28 12:31N 29°35' W 090°36'0 0.0
2016-Apr-28 11:31N 29°35' W 090°36'0 0.0
2016-Apr-28 10:31N 29°35' W 090°36'0 0.0
2016-Apr-28 09:31N 29°35' W 090°36'0 0.0
2016-Apr-28 08:31N 29°35' W 090°36'0 0.0
2016-Apr-28 07:31N 29°35' W 090°36'0 0.0
2016-Apr-28 06:31N 29°35' W 090°36'0 0.0
2016-Apr-28 05:31N 29°35' W 090°36'0 0.0
2016-Apr-28 04:31N 29°35' W 090°36'0 0.0
2016-Apr-28 03:31N 29°35' W 090°36'0 0.0
2016-Apr-28 02:31N 29°35' W 090°36'0 0.0
2016-Apr-28 01:31N 29°35' W 090°36'0 0.0
2016-Apr-28 00:25N 29°35' W 090°36'0 0.0
2016-Apr-27 23:31N 29°35' W 090°36'0 0.0
2016-Apr-27 22:31N 29°35' W 090°36'0 0.0
2016-Apr-27 21:31N 29°35' W 090°36'0 0.0
2016-Apr-27 20:31N 29°35' W 090°36'0 0.0
2016-Apr-27 19:31N 29°35' W 090°36'0 0.0
2016-Apr-27 18:31N 29°35' W 090°36'0 0.0
2016-Apr-27 17:31N 29°35' W 090°36'0 0.0
2016-Apr-27 16:31N 29°35' W 090°36'0 0.0
2016-Apr-27 15:31N 29°35' W 090°36'0 0.0
2016-Apr-27 14:19N 29°35' W 090°36'0 0.0
2016-Apr-27 13:19N 29°35' W 090°36'0 0.0
2016-Apr-27 12:31N 29°35' W 090°36'0 0.0
2016-Apr-27 11:31N 29°35' W 090°36'0 0.0
2016-Apr-27 10:25N 29°35' W 090°36'0 0.0
2016-Apr-27 09:31N 29°35' W 090°36'0 0.0
2016-Apr-27 08:31N 29°35' W 090°36'0 0.0
2016-Apr-27 07:31N 29°35' W 090°36'0 0.0
2016-Apr-27 06:31N 29°35' W 090°36'0 0.0
2016-Apr-27 05:31N 29°35' W 090°36'0 0.0
2016-Apr-27 04:31N 29°35' W 090°36'0 0.0
2016-Apr-27 03:25N 29°35' W 090°36'0 0.0
2016-Apr-27 02:31N 29°35' W 090°36'0 0.0
2016-Apr-27 01:31N 29°35' W 090°36'0 0.0
2016-Apr-27 00:25N 29°35' W 090°36'0 0.0
2016-Apr-26 23:31N 29°35' W 090°36'0 0.0
2016-Apr-26 22:07N 29°35' W 090°36'0 0.0
2016-Apr-26 21:25N 29°35' W 090°36'0 0.0
2016-Apr-26 20:31N 29°35' W 090°36'0 0.0
2016-Apr-26 19:31N 29°35' W 090°36'0 0.0
2016-Apr-26 16:13N 29°35' W 090°36'0 0.0
2016-Apr-26 15:31N 29°35' W 090°36'4 3.9
2016-Apr-26 14:32N 29°36' W 090°40'0 0.0
2016-Apr-26 13:31N 29°36' W 090°40'0 0.0
2016-Apr-26 12:31N 29°36' W 090°40'0 0.0
2016-Apr-26 11:19N 29°36' W 090°40'0 0.0
2016-Apr-26 08:25N 29°36' W 090°40'0 0.0
2016-Apr-26 07:31N 29°36' W 090°40'0 0.0
2016-Apr-26 05:23N 29°36' W 090°40'4 5.3
2016-Apr-26 04:33N 29°35' W 090°35'11 0.3
2016-Apr-24 15:23N 29°26' W 090°43'4 4.6
2016-Apr-24 14:33N 29°29' W 090°43'5 4.7
2016-Apr-24 13:33N 29°34' W 090°43'4 3.7
2016-Apr-24 12:34N 29°32' W 090°47'5 4.7
2016-Apr-24 11:32N 29°32' W 090°52'5 4.5
2016-Apr-24 10:32N 29°34' W 090°57'  

Dump ship's entire track history